sensor_id;sensor_type;location;lat;lon;timestamp;noise_LAeq;noise_LA_min;noise_LA_max;noise_LA01;noise_LA95
186;Laerm;55473;48.800;9.002;2023-04-01T00:01:01;39.46;36.03;51.10;;
186;Laerm;55473;48.800;9.002;2023-04-01T00:03:29;57.71;36.76;68.22;;
186;Laerm;55473;48.800;9.002;2023-04-01T00:05:57;39.78;35.96;49.29;;
186;Laerm;55473;48.800;9.002;2023-04-01T00:08:25;39.52;35.43;51.50;;
186;Laerm;55473;48.800;9.002;2023-04-01T00:10:52;38.53;36.04;42.54;;
186;Laerm;55473;48.800;9.002;2023-04-01T00:13:19;39.42;36.39;46.99;;
186;Laerm;55473;48.800;9.002;2023-04-01T00:15:45;43.10;36.34;62.46;;
186;Laerm;55473;48.800;9.002;2023-04-01T00:18:11;46.76;36.74;58.64;;
186;Laerm;55473;48.800;9.002;2023-04-01T00:20:38;39.35;35.16;51.43;;
186;Laerm;55473;48.800;9.002;2023-04-01T00:23:04;57.69;36.00;68.82;;
186;Laerm;55473;48.800;9.002;2023-04-01T00:25:30;40.28;36.15;49.38;;
186;Laerm;55473;48.800;9.002;2023-04-01T00:27:57;39.28;35.60;48.77;;
186;Laerm;55473;48.800;9.002;2023-04-01T00:30:23;41.57;36.02;53.37;;
186;Laerm;55473;48.800;9.002;2023-04-01T00:32:52;39.69;35.90;47.86;;
186;Laerm;55473;48.800;9.002;2023-04-01T00:35:19;39.40;36.31;51.66;;
186;Laerm;55473;48.800;9.002;2023-04-01T00:37:45;40.26;36.15;50.75;;
186;Laerm;55473;48.800;9.002;2023-04-01T00:40:32;41.02;36.28;55.85;;
186;Laerm;55473;48.800;9.002;2023-04-01T00:42:59;42.52;36.27;55.12;;
186;Laerm;55473;48.800;9.002;2023-04-01T00:45:38;43.86;38.07;54.19;;
186;Laerm;55473;48.800;9.002;2023-04-01T00:48:11;40.63;36.43;53.14;;
186;Laerm;55473;48.800;9.002;2023-04-01T00:50:46;39.20;36.37;49.76;;
186;Laerm;55473;48.800;9.002;2023-04-01T00:53:14;38.92;36.54;44.76;;
186;Laerm;55473;48.800;9.002;2023-04-01T00:55:51;38.63;36.00;44.41;;
186;Laerm;55473;48.800;9.002;2023-04-01T00:58:24;40.92;36.94;58.50;;
186;Laerm;55473;48.800;9.002;2023-04-01T01:00:55;41.71;36.19;56.27;;
186;Laerm;55473;48.800;9.002;2023-04-01T01:03:22;39.82;36.00;47.88;;
186;Laerm;55473;48.800;9.002;2023-04-01T01:06:20;39.42;34.94;48.96;;
186;Laerm;55473;48.800;9.002;2023-04-01T01:11:52;38.76;35.85;49.63;;
186;Laerm;55473;48.800;9.002;2023-04-01T01:20:00;42.08;36.39;52.50;;
186;Laerm;55473;48.800;9.002;2023-04-01T01:35:27;43.23;36.06;60.90;;
186;Laerm;55473;48.800;9.002;2023-04-01T01:38:11;40.57;35.64;59.52;;
186;Laerm;55473;48.800;9.002;2023-04-01T01:40:44;43.21;36.93;57.66;;
186;Laerm;55473;48.800;9.002;2023-04-01T01:43:17;42.55;36.17;65.78;;
186;Laerm;55473;48.800;9.002;2023-04-01T01:45:52;49.68;40.32;63.50;;
186;Laerm;55473;48.800;9.002;2023-04-01T01:48:20;42.38;37.09;60.69;;
186;Laerm;55473;48.800;9.002;2023-04-01T01:50:48;39.87;35.97;57.11;;
186;Laerm;55473;48.800;9.002;2023-04-01T01:53:15;39.86;35.92;55.48;;
186;Laerm;55473;48.800;9.002;2023-04-01T01:55:46;39.31;35.94;48.04;;
186;Laerm;55473;48.800;9.002;2023-04-01T01:58:25;39.85;35.68;50.40;;
186;Laerm;55473;48.800;9.002;2023-04-01T02:01:02;38.66;35.98;45.69;;
186;Laerm;55473;48.800;9.002;2023-04-01T02:03:34;39.83;35.45;48.38;;
186;Laerm;55473;48.800;9.002;2023-04-01T02:06:10;40.85;35.24;61.84;;
186;Laerm;55473;48.800;9.002;2023-04-01T02:09:03;45.89;36.32;64.12;;
186;Laerm;55473;48.800;9.002;2023-04-01T02:12:01;46.29;36.09;60.62;;
186;Laerm;55473;48.800;9.002;2023-04-01T02:17:23;45.06;36.09;63.48;;
186;Laerm;55473;48.800;9.002;2023-04-01T02:20:01;42.81;36.09;63.70;;
186;Laerm;55473;48.800;9.002;2023-04-01T02:22:43;41.37;35.45;61.26;;
186;Laerm;55473;48.800;9.002;2023-04-01T02:25:34;41.41;35.73;65.89;;
186;Laerm;55473;48.800;9.002;2023-04-01T02:28:05;43.06;36.64;57.67;;
186;Laerm;55473;48.800;9.002;2023-04-01T02:30:35;42.96;36.65;65.85;;
186;Laerm;55473;48.800;9.002;2023-04-01T02:33:04;42.65;36.69;55.58;;
186;Laerm;55473;48.800;9.002;2023-04-01T02:35:35;43.25;36.84;56.48;;
186;Laerm;55473;48.800;9.002;2023-04-01T02:38:02;42.00;36.77;56.04;;
186;Laerm;55473;48.800;9.002;2023-04-01T02:40:28;43.36;36.85;58.92;;
186;Laerm;55473;48.800;9.002;2023-04-01T02:42:54;43.25;36.62;59.34;;
186;Laerm;55473;48.800;9.002;2023-04-01T02:45:20;47.70;38.11;57.04;;
186;Laerm;55473;48.800;9.002;2023-04-01T02:47:46;44.13;37.56;57.99;;
186;Laerm;55473;48.800;9.002;2023-04-01T02:50:12;43.81;37.32;56.04;;
186;Laerm;55473;48.800;9.002;2023-04-01T02:52:38;43.44;37.00;57.70;;
186;Laerm;55473;48.800;9.002;2023-04-01T02:55:05;44.26;36.67;59.96;;
186;Laerm;55473;48.800;9.002;2023-04-01T02:57:31;43.18;36.27;57.47;;
186;Laerm;55473;48.800;9.002;2023-04-01T02:59:57;42.91;36.89;59.66;;
186;Laerm;55473;48.800;9.002;2023-04-01T03:02:23;43.31;37.84;55.84;;
186;Laerm;55473;48.800;9.002;2023-04-01T03:04:50;41.48;36.50;55.75;;
186;Laerm;55473;48.800;9.002;2023-04-01T03:07:16;40.41;35.59;55.16;;
186;Laerm;55473;48.800;9.002;2023-04-01T03:09:42;41.43;35.57;55.67;;
186;Laerm;55473;48.800;9.002;2023-04-01T03:12:07;41.56;36.10;59.48;;
186;Laerm;55473;48.800;9.002;2023-04-01T03:14:33;41.93;35.58;56.39;;
186;Laerm;55473;48.800;9.002;2023-04-01T03:16:59;44.00;35.24;56.16;;
186;Laerm;55473;48.800;9.002;2023-04-01T03:19:26;42.86;35.84;55.33;;
186;Laerm;55473;48.800;9.002;2023-04-01T03:21:51;40.36;36.13;53.21;;
186;Laerm;55473;48.800;9.002;2023-04-01T03:24:17;40.87;36.18;52.35;;
186;Laerm;55473;48.800;9.002;2023-04-01T03:26:43;49.45;36.05;72.26;;
186;Laerm;55473;48.800;9.002;2023-04-01T03:29:09;41.90;36.60;51.40;;
186;Laerm;55473;48.800;9.002;2023-04-01T03:31:35;42.49;36.83;52.06;;
186;Laerm;55473;48.800;9.002;2023-04-01T03:34:01;44.86;36.82;64.18;;
186;Laerm;55473;48.800;9.002;2023-04-01T03:36:27;47.13;38.01;64.62;;
186;Laerm;55473;48.800;9.002;2023-04-01T03:38:53;51.82;38.02;72.97;;
186;Laerm;55473;48.800;9.002;2023-04-01T03:41:19;49.86;37.25;69.33;;
186;Laerm;55473;48.800;9.002;2023-04-01T03:43:45;49.31;39.11;66.74;;
186;Laerm;55473;48.800;9.002;2023-04-01T03:46:12;48.35;38.49;67.77;;
186;Laerm;55473;48.800;9.002;2023-04-01T03:48:42;49.10;39.54;64.71;;
186;Laerm;55473;48.800;9.002;2023-04-01T03:51:08;46.01;38.30;63.91;;
186;Laerm;55473;48.800;9.002;2023-04-01T03:53:34;45.91;37.69;55.94;;
186;Laerm;55473;48.800;9.002;2023-04-01T03:56:07;44.56;38.43;52.68;;
186;Laerm;55473;48.800;9.002;2023-04-01T03:58:34;43.96;38.28;52.80;;
186;Laerm;55473;48.800;9.002;2023-04-01T04:01:00;53.68;38.42;65.39;;
186;Laerm;55473;48.800;9.002;2023-04-01T04:03:26;48.01;39.75;57.39;;
186;Laerm;55473;48.800;9.002;2023-04-01T04:05:52;47.21;38.99;56.73;;
186;Laerm;55473;48.800;9.002;2023-04-01T04:08:18;48.51;39.40;57.21;;
186;Laerm;55473;48.800;9.002;2023-04-01T04:10:44;53.33;38.72;68.81;;
186;Laerm;55473;48.800;9.002;2023-04-01T04:13:10;54.33;39.66;68.60;;
186;Laerm;55473;48.800;9.002;2023-04-01T04:15:36;57.68;40.90;72.93;;
186;Laerm;55473;48.800;9.002;2023-04-01T04:18:02;59.42;42.42;72.78;;
186;Laerm;55473;48.800;9.002;2023-04-01T04:20:28;57.01;40.16;69.74;;
186;Laerm;55473;48.800;9.002;2023-04-01T04:22:53;58.78;41.16;70.20;;
186;Laerm;55473;48.800;9.002;2023-04-01T04:25:19;60.60;41.12;74.38;;
186;Laerm;55473;48.800;9.002;2023-04-01T04:27:45;60.49;42.19;71.30;;
186;Laerm;55473;48.800;9.002;2023-04-01T04:30:11;57.42;41.75;68.99;;
186;Laerm;55473;48.800;9.002;2023-04-01T04:32:37;57.88;42.02;70.78;;
186;Laerm;55473;48.800;9.002;2023-04-01T04:35:04;51.66;41.31;65.40;;
186;Laerm;55473;48.800;9.002;2023-04-01T04:37:32;53.25;40.94;69.01;;
186;Laerm;55473;48.800;9.002;2023-04-01T04:39:58;51.73;41.74;64.68;;
186;Laerm;55473;48.800;9.002;2023-04-01T04:42:23;51.93;42.36;69.00;;
186;Laerm;55473;48.800;9.002;2023-04-01T04:44:49;52.42;41.21;73.62;;
186;Laerm;55473;48.800;9.002;2023-04-01T04:47:15;51.64;41.73;64.71;;
186;Laerm;55473;48.800;9.002;2023-04-01T04:49:41;54.84;42.48;74.49;;
186;Laerm;55473;48.800;9.002;2023-04-01T04:52:07;47.54;39.96;61.85;;
186;Laerm;55473;48.800;9.002;2023-04-01T04:54:33;48.89;41.17;58.23;;
186;Laerm;55473;48.800;9.002;2023-04-01T04:56:59;49.63;41.32;63.56;;
186;Laerm;55473;48.800;9.002;2023-04-01T04:59:24;47.51;40.99;59.43;;
186;Laerm;55473;48.800;9.002;2023-04-01T05:01:50;51.09;40.68;67.56;;
186;Laerm;55473;48.800;9.002;2023-04-01T05:04:16;56.63;41.93;73.44;;
186;Laerm;55473;48.800;9.002;2023-04-01T05:06:43;55.08;40.21;73.19;;
186;Laerm;55473;48.800;9.002;2023-04-01T05:09:10;46.32;39.80;58.43;;
186;Laerm;55473;48.800;9.002;2023-04-01T05:11:36;49.57;40.71;65.83;;
186;Laerm;55473;48.800;9.002;2023-04-01T05:14:02;54.28;41.42;68.24;;
186;Laerm;55473;48.800;9.002;2023-04-01T05:16:28;45.32;40.52;58.73;;
186;Laerm;55473;48.800;9.002;2023-04-01T05:18:54;49.44;40.56;63.50;;
186;Laerm;55473;48.800;9.002;2023-04-01T05:21:20;47.02;40.76;60.33;;
186;Laerm;55473;48.800;9.002;2023-04-01T05:23:46;56.25;40.15;73.31;;
186;Laerm;55473;48.800;9.002;2023-04-01T05:26:14;44.86;39.87;65.53;;
186;Laerm;55473;48.800;9.002;2023-04-01T05:28:41;49.70;41.21;68.33;;
186;Laerm;55473;48.800;9.002;2023-04-01T05:31:07;52.57;40.51;68.31;;
186;Laerm;55473;48.800;9.002;2023-04-01T05:33:34;52.55;39.71;67.75;;
186;Laerm;55473;48.800;9.002;2023-04-01T05:36:12;50.82;39.61;68.95;;
186;Laerm;55473;48.800;9.002;2023-04-01T05:38:39;49.67;39.33;67.64;;
186;Laerm;55473;48.800;9.002;2023-04-01T05:41:05;49.84;40.65;64.30;;
186;Laerm;55473;48.800;9.002;2023-04-01T05:43:31;50.52;41.41;63.72;;
186;Laerm;55473;48.800;9.002;2023-04-01T05:45:57;56.44;40.82;70.56;;
186;Laerm;55473;48.800;9.002;2023-04-01T05:48:23;51.88;41.40;68.17;;
186;Laerm;55473;48.800;9.002;2023-04-01T05:50:49;49.54;41.74;65.83;;
186;Laerm;55473;48.800;9.002;2023-04-01T05:53:15;50.23;41.50;65.45;;
186;Laerm;55473;48.800;9.002;2023-04-01T05:55:41;45.76;40.40;57.34;;
186;Laerm;55473;48.800;9.002;2023-04-01T05:58:07;50.81;42.09;69.06;;
186;Laerm;55473;48.800;9.002;2023-04-01T06:00:33;51.92;41.47;76.03;;
186;Laerm;55473;48.800;9.002;2023-04-01T06:02:59;50.19;40.19;69.78;;
186;Laerm;55473;48.800;9.002;2023-04-01T06:05:29;48.12;40.09;62.32;;
186;Laerm;55473;48.800;9.002;2023-04-01T06:08:12;53.21;40.01;70.74;;
186;Laerm;55473;48.800;9.002;2023-04-01T06:14:07;47.29;40.50;58.24;;
186;Laerm;55473;48.800;9.002;2023-04-01T06:22:22;55.73;41.18;70.32;;
186;Laerm;55473;48.800;9.002;2023-04-01T06:27:40;50.31;41.12;62.00;;
186;Laerm;55473;48.800;9.002;2023-04-01T06:30:40;52.92;41.72;70.68;;
186;Laerm;55473;48.800;9.002;2023-04-01T06:42:06;50.11;40.99;64.47;;
186;Laerm;55473;48.800;9.002;2023-04-01T06:48:11;50.03;41.90;67.54;;
186;Laerm;55473;48.800;9.002;2023-04-01T06:53:38;48.67;42.03;68.66;;
186;Laerm;55473;48.800;9.002;2023-04-01T06:56:11;50.39;41.53;68.88;;
186;Laerm;55473;48.800;9.002;2023-04-01T06:59:08;51.67;42.67;68.12;;
186;Laerm;55473;48.800;9.002;2023-04-01T07:01:39;50.10;43.18;63.03;;
186;Laerm;55473;48.800;9.002;2023-04-01T07:04:29;51.47;42.51;68.32;;
186;Laerm;55473;48.800;9.002;2023-04-01T07:09:52;51.47;42.65;70.69;;
186;Laerm;55473;48.800;9.002;2023-04-01T07:12:34;49.66;42.07;65.66;;
186;Laerm;55473;48.800;9.002;2023-04-01T07:15:28;53.56;42.04;69.16;;
186;Laerm;55473;48.800;9.002;2023-04-01T07:18:19;51.10;42.90;64.23;;
186;Laerm;55473;48.800;9.002;2023-04-01T07:20:47;47.82;42.26;61.38;;
186;Laerm;55473;48.800;9.002;2023-04-01T07:23:31;51.58;41.54;64.73;;
186;Laerm;55473;48.800;9.002;2023-04-01T07:26:20;57.22;41.65;73.21;;
186;Laerm;55473;48.800;9.002;2023-04-01T07:28:51;48.55;40.87;58.62;;
186;Laerm;55473;48.800;9.002;2023-04-01T07:38:20;49.50;41.47;66.87;;
186;Laerm;55473;48.800;9.002;2023-04-01T07:43:59;48.43;43.19;61.77;;
186;Laerm;55473;48.800;9.002;2023-04-01T07:52:38;50.60;42.01;67.27;;
186;Laerm;55473;48.800;9.002;2023-04-01T07:55:39;49.52;41.78;64.20;;
186;Laerm;55473;48.800;9.002;2023-04-01T08:01:33;52.36;43.39;69.23;;
186;Laerm;55473;48.800;9.002;2023-04-01T08:07:02;47.82;43.04;67.57;;
186;Laerm;55473;48.800;9.002;2023-04-01T08:13:03;51.59;42.72;65.59;;
186;Laerm;55473;48.800;9.002;2023-04-01T08:21:01;51.48;44.40;69.75;;
186;Laerm;55473;48.800;9.002;2023-04-01T08:23:47;52.87;43.34;72.00;;
186;Laerm;55473;48.800;9.002;2023-04-01T08:26:44;49.60;43.25;67.20;;
186;Laerm;55473;48.800;9.002;2023-04-01T08:29:19;50.44;42.57;63.04;;
186;Laerm;55473;48.800;9.002;2023-04-01T08:32:08;58.03;45.48;77.25;;
186;Laerm;55473;48.800;9.002;2023-04-01T08:34:39;55.02;46.09;74.32;;
186;Laerm;55473;48.800;9.002;2023-04-01T08:37:31;52.69;45.99;65.28;;
186;Laerm;55473;48.800;9.002;2023-04-01T08:52:09;46.71;43.04;57.94;;
186;Laerm;55473;48.800;9.002;2023-04-01T08:55:12;48.58;42.77;65.54;;
186;Laerm;55473;48.800;9.002;2023-04-01T08:58:04;50.42;42.76;63.08;;
186;Laerm;55473;48.800;9.002;2023-04-01T09:03:50;51.57;44.58;63.50;;
186;Laerm;55473;48.800;9.002;2023-04-01T09:09:40;55.14;43.18;69.55;;
186;Laerm;55473;48.800;9.002;2023-04-01T09:36:37;50.99;44.28;64.08;;
186;Laerm;55473;48.800;9.002;2023-04-01T09:39:34;48.41;43.94;62.81;;
186;Laerm;55473;48.800;9.002;2023-04-01T09:42:14;56.32;45.62;72.96;;
186;Laerm;55473;48.800;9.002;2023-04-01T09:44:58;55.20;44.62;72.71;;
186;Laerm;55473;48.800;9.002;2023-04-01T09:47:49;52.73;44.34;74.26;;
186;Laerm;55473;48.800;9.002;2023-04-01T09:50:55;51.71;43.66;71.26;;
186;Laerm;55473;48.800;9.002;2023-04-01T09:54:24;50.55;43.60;64.58;;
186;Laerm;55473;48.800;9.002;2023-04-01T09:57:29;50.08;43.90;63.56;;
186;Laerm;55473;48.800;9.002;2023-04-01T10:10:09;50.13;43.27;61.67;;
186;Laerm;55473;48.800;9.002;2023-04-01T10:21:47;48.57;42.76;62.18;;
186;Laerm;55473;48.800;9.002;2023-04-01T10:24:37;49.85;43.59;67.89;;
186;Laerm;55473;48.800;9.002;2023-04-01T10:42:20;50.09;43.36;64.25;;
186;Laerm;55473;48.800;9.002;2023-04-01T10:57:14;48.71;42.05;61.30;;
186;Laerm;55473;48.800;9.002;2023-04-01T11:03:18;52.95;43.63;70.62;;
186;Laerm;55473;48.800;9.002;2023-04-01T11:13:08;49.20;43.17;61.90;;
186;Laerm;55473;48.800;9.002;2023-04-01T11:20:38;48.03;42.91;61.62;;
186;Laerm;55473;48.800;9.002;2023-04-01T11:35:33;51.15;43.75;70.93;;
186;Laerm;55473;48.800;9.002;2023-04-01T11:52:37;52.23;43.86;71.00;;
186;Laerm;55473;48.800;9.002;2023-04-01T11:59:04;47.77;43.13;61.45;;
186;Laerm;55473;48.800;9.002;2023-04-01T12:11:17;47.74;41.28;61.81;;
186;Laerm;55473;48.800;9.002;2023-04-01T12:17:26;52.35;43.69;67.58;;
186;Laerm;55473;48.800;9.002;2023-04-01T12:28:45;51.38;42.99;72.66;;
186;Laerm;55473;48.800;9.002;2023-04-01T12:40:03;52.71;42.88;76.42;;
186;Laerm;55473;48.800;9.002;2023-04-01T12:43:09;52.66;42.17;70.22;;
186;Laerm;55473;48.800;9.002;2023-04-01T12:54:25;50.66;43.98;67.38;;
186;Laerm;55473;48.800;9.002;2023-04-01T13:03:12;52.65;43.65;67.18;;
186;Laerm;55473;48.800;9.002;2023-04-01T13:18:01;49.74;43.10;60.83;;
186;Laerm;55473;48.800;9.002;2023-04-01T13:20:53;55.64;42.68;69.71;;
186;Laerm;55473;48.800;9.002;2023-04-01T13:23:48;50.40;41.69;60.28;;
186;Laerm;55473;48.800;9.002;2023-04-01T13:26:50;52.57;42.75;64.01;;
186;Laerm;55473;48.800;9.002;2023-04-01T13:40:35;52.06;43.35;68.34;;
186;Laerm;55473;48.800;9.002;2023-04-01T13:43:42;52.37;43.08;68.78;;
186;Laerm;55473;48.800;9.002;2023-04-01T13:55:55;49.67;42.12;66.00;;
186;Laerm;55473;48.800;9.002;2023-04-01T13:58:48;51.83;43.43;65.44;;
186;Laerm;55473;48.800;9.002;2023-04-01T14:01:44;52.47;43.72;70.01;;
186;Laerm;55473;48.800;9.002;2023-04-01T14:04:20;51.65;44.54;62.07;;
186;Laerm;55473;48.800;9.002;2023-04-01T14:18:42;49.40;41.71;59.24;;
186;Laerm;55473;48.800;9.002;2023-04-01T14:27:56;49.33;39.27;68.86;;
186;Laerm;55473;48.800;9.002;2023-04-01T14:50:54;48.53;40.71;63.43;;
186;Laerm;55473;48.800;9.002;2023-04-01T14:55:58;44.30;39.94;57.31;;
186;Laerm;55473;48.800;9.002;2023-04-01T14:58:47;47.76;41.91;61.81;;
186;Laerm;55473;48.800;9.002;2023-04-01T15:44:58;54.40;42.45;75.65;;
186;Laerm;55473;48.800;9.002;2023-04-01T15:50:50;50.24;41.78;66.12;;
186;Laerm;55473;48.800;9.002;2023-04-01T16:11:43;49.96;42.31;66.02;;
186;Laerm;55473;48.800;9.002;2023-04-01T16:20:54;45.64;39.20;61.10;;
186;Laerm;55473;48.800;9.002;2023-04-01T16:23:43;48.34;41.41;63.27;;
186;Laerm;55473;48.800;9.002;2023-04-01T16:35:47;48.83;39.31;65.38;;
186;Laerm;55473;48.800;9.002;2023-04-01T16:43:39;50.08;39.43;71.95;;
186;Laerm;55473;48.800;9.002;2023-04-01T16:59:36;47.67;39.95;64.84;;
186;Laerm;55473;48.800;9.002;2023-04-01T17:02:16;50.67;38.64;65.49;;
186;Laerm;55473;48.800;9.002;2023-04-01T17:10:58;47.90;39.55;61.93;;
186;Laerm;55473;48.800;9.002;2023-04-01T17:14:03;49.42;41.10;71.43;;
186;Laerm;55473;48.800;9.002;2023-04-01T17:16:55;49.56;40.03;64.58;;
186;Laerm;55473;48.800;9.002;2023-04-01T17:22:43;48.06;39.65;61.90;;
186;Laerm;55473;48.800;9.002;2023-04-01T17:28:42;49.68;39.54;70.20;;
186;Laerm;55473;48.800;9.002;2023-04-01T17:45:42;45.68;40.37;58.76;;
186;Laerm;55473;48.800;9.002;2023-04-01T17:51:11;44.62;38.92;52.20;;
186;Laerm;55473;48.800;9.002;2023-04-01T18:03:13;48.27;39.90;66.95;;
186;Laerm;55473;48.800;9.002;2023-04-01T18:11:49;43.49;37.05;58.03;;
186;Laerm;55473;48.800;9.002;2023-04-01T18:23:39;43.36;39.12;62.94;;
186;Laerm;55473;48.800;9.002;2023-04-01T18:26:46;43.28;38.65;57.64;;
186;Laerm;55473;48.800;9.002;2023-04-01T18:29:46;45.46;38.27;55.83;;
186;Laerm;55473;48.800;9.002;2023-04-01T18:32:28;44.86;40.00;58.82;;
186;Laerm;55473;48.800;9.002;2023-04-01T18:38:16;44.28;40.22;59.45;;
186;Laerm;55473;48.800;9.002;2023-04-01T18:41:12;42.97;39.60;52.12;;
186;Laerm;55473;48.800;9.002;2023-04-01T18:50:11;44.96;39.19;57.29;;
186;Laerm;55473;48.800;9.002;2023-04-01T18:52:43;44.40;38.40;59.40;;
186;Laerm;55473;48.800;9.002;2023-04-01T18:55:29;42.39;37.65;63.86;;
186;Laerm;55473;48.800;9.002;2023-04-01T19:01:16;43.44;37.29;54.62;;
186;Laerm;55473;48.800;9.002;2023-04-01T19:06:54;42.83;37.62;57.07;;
186;Laerm;55473;48.800;9.002;2023-04-01T19:09:33;42.33;37.96;53.09;;
186;Laerm;55473;48.800;9.002;2023-04-01T19:15:38;47.63;38.37;77.56;;
186;Laerm;55473;48.800;9.002;2023-04-01T19:21:10;41.65;37.41;48.55;;
186;Laerm;55473;48.800;9.002;2023-04-01T19:26:53;41.71;37.35;48.76;;
186;Laerm;55473;48.800;9.002;2023-04-01T19:29:54;40.69;36.57;46.30;;
186;Laerm;55473;48.800;9.002;2023-04-01T19:32:45;41.42;36.30;47.16;;
186;Laerm;55473;48.800;9.002;2023-04-01T19:41:46;44.09;36.81;62.37;;
186;Laerm;55473;48.800;9.002;2023-04-01T19:50:33;45.18;37.60;54.39;;
186;Laerm;55473;48.800;9.002;2023-04-01T19:53:31;42.44;37.88;65.52;;
186;Laerm;55473;48.800;9.002;2023-04-01T19:56:18;43.68;37.66;61.79;;
186;Laerm;55473;48.800;9.002;2023-04-01T19:59:16;40.58;36.71;50.93;;
186;Laerm;55473;48.800;9.002;2023-04-01T20:04:53;41.29;37.33;52.76;;
186;Laerm;55473;48.800;9.002;2023-04-01T20:10:28;42.05;36.57;52.92;;
186;Laerm;55473;48.800;9.002;2023-04-01T20:16:06;43.81;37.34;53.91;;
186;Laerm;55473;48.800;9.002;2023-04-01T20:18:59;46.48;38.00;60.00;;
186;Laerm;55473;48.800;9.002;2023-04-01T20:21:38;39.31;36.14;50.45;;
186;Laerm;55473;48.800;9.002;2023-04-01T20:24:35;41.11;36.56;56.51;;
186;Laerm;55473;48.800;9.002;2023-04-01T20:36:26;55.80;36.94;70.94;;
186;Laerm;55473;48.800;9.002;2023-04-01T20:39:34;43.43;37.07;61.90;;
186;Laerm;55473;48.800;9.002;2023-04-01T20:51:23;42.34;38.09;49.69;;
186;Laerm;55473;48.800;9.002;2023-04-01T20:54:35;44.38;37.37;63.88;;
186;Laerm;55473;48.800;9.002;2023-04-01T21:12:27;41.02;37.73;47.44;;
186;Laerm;55473;48.800;9.002;2023-04-01T21:31:33;38.21;35.39;42.60;;
186;Laerm;55473;48.800;9.002;2023-04-01T21:37:22;39.25;35.95;45.38;;
186;Laerm;55473;48.800;9.002;2023-04-01T21:50:47;42.23;37.14;50.65;;
186;Laerm;55473;48.800;9.002;2023-04-01T21:54:07;43.14;35.67;64.48;;
186;Laerm;55473;48.800;9.002;2023-04-01T22:00:42;39.82;34.67;49.79;;
186;Laerm;55473;48.800;9.002;2023-04-01T22:12:17;39.31;35.88;48.32;;
186;Laerm;55473;48.800;9.002;2023-04-01T22:17:52;45.46;36.25;59.36;;
186;Laerm;55473;48.800;9.002;2023-04-01T22:23:31;38.74;34.62;46.23;;
186;Laerm;55473;48.800;9.002;2023-04-01T22:31:28;40.11;34.31;54.13;;
186;Laerm;55473;48.800;9.002;2023-04-01T22:37:35;38.60;34.77;51.05;;
186;Laerm;55473;48.800;9.002;2023-04-01T22:43:06;39.95;34.15;57.43;;
186;Laerm;55473;48.800;9.002;2023-04-01T22:45:56;42.10;34.99;55.44;;
186;Laerm;55473;48.800;9.002;2023-04-01T22:48:32;42.09;34.64;54.96;;
186;Laerm;55473;48.800;9.002;2023-04-01T22:51:50;40.15;35.03;48.17;;
186;Laerm;55473;48.800;9.002;2023-04-01T22:54:32;39.44;35.10;48.17;;
186;Laerm;55473;48.800;9.002;2023-04-01T22:57:18;38.24;34.40;44.45;;
186;Laerm;55473;48.800;9.002;2023-04-01T22:59:58;36.80;34.54;44.27;;
186;Laerm;55473;48.800;9.002;2023-04-01T23:02:40;37.44;34.59;46.00;;
186;Laerm;55473;48.800;9.002;2023-04-01T23:05:15;38.95;34.72;45.94;;
186;Laerm;55473;48.800;9.002;2023-04-01T23:10:43;39.27;34.73;46.88;;
186;Laerm;55473;48.800;9.002;2023-04-01T23:13:22;41.73;34.83;53.84;;
186;Laerm;55473;48.800;9.002;2023-04-01T23:15:53;42.85;35.81;55.86;;
186;Laerm;55473;48.800;9.002;2023-04-01T23:18:37;46.81;35.47;61.93;;
186;Laerm;55473;48.800;9.002;2023-04-01T23:21:34;40.27;34.62;52.57;;
186;Laerm;55473;48.800;9.002;2023-04-01T23:24:37;39.26;35.06;54.27;;
186;Laerm;55473;48.800;9.002;2023-04-01T23:27:29;39.75;34.72;56.25;;
186;Laerm;55473;48.800;9.002;2023-04-01T23:29:57;39.63;34.98;52.10;;
186;Laerm;55473;48.800;9.002;2023-04-01T23:32:25;39.03;34.19;52.61;;
186;Laerm;55473;48.800;9.002;2023-04-01T23:35:00;38.47;35.02;49.32;;
186;Laerm;55473;48.800;9.002;2023-04-01T23:37:27;38.65;34.94;52.12;;
186;Laerm;55473;48.800;9.002;2023-04-01T23:39:57;40.64;34.40;50.90;;
186;Laerm;55473;48.800;9.002;2023-04-01T23:42:33;42.71;34.70;57.76;;
186;Laerm;55473;48.800;9.002;2023-04-01T23:45:15;44.80;34.53;58.33;;
186;Laerm;55473;48.800;9.002;2023-04-01T23:47:48;39.04;34.37;51.50;;
186;Laerm;55473;48.800;9.002;2023-04-01T23:50:23;38.43;34.03;51.76;;
186;Laerm;55473;48.800;9.002;2023-04-01T23:53:19;36.84;34.09;42.89;;
186;Laerm;55473;48.800;9.002;2023-04-01T23:55:46;39.02;34.88;45.61;;
186;Laerm;55473;48.800;9.002;2023-04-01T23:58:23;36.72;34.37;41.92;;
